Time;durP1;ratioP1;P1;durP2;ratioP2;P2;SDS_P1;SDS_P2;PMS_P1;PMS_P2;Temp;Humidity;BMP_temperature;BMP_pressure;BME280_temperature;BME280_humidity;BME280_pressure;Samples;Min_cycle;Max_cycle;Signal;HPM_P1;HPM_P2
2023/08/12 00:01:37;;;;;;;4.43;4.03;;;22.20;99.90;;;;;;5008076;28;20469;-65
2023/08/12 00:04:05;;;;;;;5.77;4.30;;;22.30;99.90;;;;;;5010495;28;20503;-66
2023/08/12 00:06:32;;;;;;;14.77;4.83;;;22.30;99.90;;;;;;4996793;28;21044;-65
2023/08/12 00:08:59;;;;;;;6.50;5.07;;;22.30;99.90;;;;;;5007075;28;20515;-67
2023/08/12 00:11:26;;;;;;;11.57;4.77;;;22.20;99.90;;;;;;5006987;28;20954;-67
2023/08/12 00:13:52;;;;;;;4.77;4.40;;;22.20;99.90;;;;;;5009153;28;20485;-67
2023/08/12 00:16:21;;;;;;;9.93;5.83;;;22.10;99.90;;;;;;5010276;28;20472;-67
2023/08/12 00:18:48;;;;;;;4.37;3.97;;;;;;;;;;5010989;28;20481;-66
2023/08/12 00:21:15;;;;;;;6.40;5.30;;;;;;;;;;4998847;28;20755;-66
2023/08/12 00:23:44;;;;;;;7.00;5.30;;;21.60;99.90;;;;;;5009335;28;21058;-67
2023/08/12 00:26:11;;;;;;;9.20;5.63;;;21.50;99.90;;;;;;5009786;28;20543;-67
2023/08/12 00:28:38;;;;;;;5.70;4.73;;;21.50;99.90;;;;;;5009533;28;20447;-67
2023/08/12 00:31:05;;;;;;;13.67;5.83;;;21.50;99.90;;;;;;5010490;28;20473;-66
2023/08/12 00:33:33;;;;;;;10.57;6.50;;;21.50;99.90;;;;;;5010207;28;20480;-67
2023/08/12 00:36:00;;;;;;;7.77;5.07;;;21.50;99.90;;;;;;5011026;28;20580;-67
2023/08/12 00:38:27;;;;;;;11.40;6.67;;;21.50;99.90;;;;;;5008194;28;20484;-67
2023/08/12 00:40:54;;;;;;;6.57;5.23;;;21.50;99.90;;;;;;5008804;28;20591;-67
2023/08/12 00:43:21;;;;;;;8.40;6.50;;;21.50;99.90;;;;;;5005547;28;20579;-66
2023/08/12 00:45:48;;;;;;;8.30;6.00;;;21.60;99.90;;;;;;5008862;28;20481;-67
2023/08/12 00:48:17;;;;;;;11.90;5.70;;;21.60;99.90;;;;;;5007664;28;20862;-67
2023/08/12 00:50:46;;;;;;;5.20;4.70;;;21.80;99.90;;;;;;5005889;28;20480;-66
2023/08/12 00:53:15;;;;;;;5.30;4.40;;;22.00;99.90;;;;;;4996166;28;20688;-66
2023/08/12 00:55:42;;;;;;;9.47;6.37;;;22.10;99.90;;;;;;5007127;28;20505;-66
2023/08/12 00:58:10;;;;;;;7.37;5.83;;;22.10;99.90;;;;;;5006713;28;20583;-66
2023/08/12 01:00:37;;;;;;;7.53;6.73;;;22.30;99.90;;;;;;5009709;28;20551;-67
2023/08/12 01:03:04;;;;;;;8.60;7.67;;;22.50;99.90;;;;;;5038490;23;20885;-68
2023/08/12 01:05:32;;;;;;;7.20;6.50;;;22.40;99.90;;;;;;5029402;28;20548;-70
2023/08/12 01:08:00;;;;;;;7.30;6.27;;;22.70;99.90;;;;;;5030462;28;20487;-70
2023/08/12 01:10:33;;;;;;;14.07;7.20;;;22.80;99.90;;;;;;5029895;28;20578;-70
2023/08/12 01:13:07;;;;;;;15.40;6.60;;;22.90;99.90;;;;;;5030102;28;20919;-70
2023/08/12 01:15:35;;;;;;;12.07;7.20;;;22.90;99.90;;;;;;5029444;28;20953;-70
2023/08/12 01:18:04;;;;;;;11.50;6.70;;;23.00;99.90;;;;;;5028224;28;20593;-70
2023/08/12 01:20:32;;;;;;;11.37;7.20;;;23.10;99.90;;;;;;5028959;28;20467;-70
2023/08/12 01:23:14;;;;;;;9.10;6.83;;;23.10;99.90;;;;;;5031668;28;20506;-69
2023/08/12 01:25:41;;;;;;;12.77;7.13;;;23.20;99.90;;;;;;5029098;28;20973;-70
2023/08/12 01:28:08;;;;;;;8.83;7.20;;;23.20;99.90;;;;;;5029656;28;20516;-70
2023/08/12 01:30:40;;;;;;;9.17;7.60;;;23.20;99.90;;;;;;5034494;28;20582;-71
2023/08/12 01:33:14;;;;;;;9.10;6.67;;;23.20;99.90;;;;;;5028100;28;20619;-71
2023/08/12 01:35:42;;;;;;;14.10;7.70;;;23.30;99.90;;;;;;5030105;28;21078;-71
2023/08/12 01:38:11;;;;;;;14.47;7.83;;;23.30;99.90;;;;;;5028043;28;20502;-72
2023/08/12 01:40:41;;;;;;;9.00;6.83;;;23.40;99.90;;;;;;5029101;28;20834;-72
2023/08/12 01:43:08;;;;;;;12.93;8.87;;;23.40;99.90;;;;;;5029683;28;20476;-72
2023/08/12 01:45:35;;;;;;;18.30;7.90;;;23.30;99.90;;;;;;5029861;28;21369;-69
2023/08/12 01:48:02;;;;;;;8.23;6.97;;;23.30;99.90;;;;;;5029376;28;20538;-69
2023/08/12 01:50:29;;;;;;;10.00;7.30;;;23.20;99.90;;;;;;5029221;28;21011;-70
2023/08/12 01:52:56;;;;;;;9.57;8.00;;;23.20;99.90;;;;;;5030604;28;20900;-69
2023/08/12 01:55:24;;;;;;;20.13;8.20;;;23.20;99.90;;;;;;5028632;28;20479;-69
2023/08/12 01:57:53;;;;;;;9.50;8.50;;;23.30;99.90;;;;;;5028866;28;20477;-69
2023/08/12 02:00:20;;;;;;;17.60;8.50;;;23.30;99.90;;;;;;5026405;28;20856;-69
2023/08/12 02:02:47;;;;;;;14.47;8.50;;;23.40;99.90;;;;;;5027707;28;20572;-68
2023/08/12 02:05:14;;;;;;;12.13;8.00;;;23.50;99.90;;;;;;5025982;28;21388;-69
2023/08/12 02:07:41;;;;;;;10.53;7.80;;;23.40;99.90;;;;;;5029613;28;20461;-69
2023/08/12 02:10:08;;;;;;;9.90;8.33;;;23.50;99.90;;;;;;5026600;28;20964;-69
2023/08/12 02:12:35;;;;;;;8.60;7.70;;;23.50;99.90;;;;;;5029100;28;20492;-69
2023/08/12 02:15:04;;;;;;;8.80;7.70;;;;;;;;;;5027901;28;20458;-70
2023/08/12 02:17:31;;;;;;;9.50;8.50;;;23.60;99.90;;;;;;5027228;28;20825;-72
2023/08/12 02:19:58;;;;;;;11.13;7.80;;;23.60;99.90;;;;;;5027742;28;20554;-73
2023/08/12 02:22:25;;;;;;;11.80;8.90;;;23.70;99.90;;;;;;5028169;28;20450;-72
2023/08/12 02:24:52;;;;;;;9.30;6.73;;;23.70;99.90;;;;;;5027279;28;20476;-72
2023/08/12 02:27:19;;;;;;;9.20;7.63;;;23.70;99.90;;;;;;5028014;28;20756;-72
2023/08/12 02:29:46;;;;;;;11.07;8.40;;;23.70;99.90;;;;;;5027364;28;20474;-72
2023/08/12 02:32:14;;;;;;;8.43;7.20;;;23.70;99.90;;;;;;5028658;28;20484;-73
2023/08/12 02:34:41;;;;;;;12.90;8.37;;;23.70;99.90;;;;;;5028645;28;20599;-72
2023/08/12 02:37:08;;;;;;;10.63;7.60;;;23.60;99.90;;;;;;5032886;28;20483;-72
2023/08/12 02:39:36;;;;;;;10.20;7.97;;;23.50;99.90;;;;;;5027188;28;20480;-72
2023/08/12 02:42:03;;;;;;;14.33;8.90;;;23.40;99.90;;;;;;5028929;28;20931;-72
2023/08/12 02:44:30;;;;;;;9.97;7.90;;;23.30;99.90;;;;;;5032191;28;20558;-71
2023/08/12 02:46:57;;;;;;;15.40;8.30;;;23.20;99.90;;;;;;5024185;28;20487;-72
2023/08/12 02:49:25;;;;;;;11.63;8.80;;;23.20;99.90;;;;;;5031876;28;20454;-72
2023/08/12 02:51:52;;;;;;;27.43;8.93;;;23.10;99.90;;;;;;5033692;28;20499;-72
2023/08/12 02:54:19;;;;;;;11.10;9.73;;;23.00;99.90;;;;;;5032947;28;20489;-73
2023/08/12 02:56:46;;;;;;;12.13;7.83;;;22.90;99.90;;;;;;5030838;28;20453;-72
2023/08/12 02:59:13;;;;;;;12.30;9.23;;;22.70;99.90;;;;;;5032771;28;20642;-71
2023/08/12 03:01:41;;;;;;;23.17;9.33;;;22.80;99.90;;;;;;5032831;28;21027;-72
2023/08/12 03:04:08;;;;;;;14.47;8.63;;;22.80;99.90;;;;;;5031703;28;20484;-72
2023/08/12 03:06:37;;;;;;;14.90;8.20;;;22.80;99.90;;;;;;5033049;28;20527;-72
2023/08/12 03:09:04;;;;;;;10.33;9.23;;;22.80;99.90;;;;;;5028433;28;20492;-71
2023/08/12 03:11:31;;;;;;;12.10;8.63;;;22.80;99.90;;;;;;5030455;28;20480;-71
2023/08/12 03:13:57;;;;;;;11.17;8.90;;;22.80;99.90;;;;;;5024033;28;20979;-71
2023/08/12 03:16:24;;;;;;;10.57;9.43;;;22.70;99.90;;;;;;5032099;28;20479;-71
2023/08/12 03:18:51;;;;;;;9.87;8.83;;;22.80;99.90;;;;;;5029165;28;20467;-72
2023/08/12 03:21:18;;;;;;;12.40;9.10;;;22.90;99.90;;;;;;5033560;28;20840;-72
2023/08/12 03:23:46;;;;;;;12.90;8.70;;;22.90;99.90;;;;;;5024806;28;20531;-72
2023/08/12 03:26:14;;;;;;;10.33;8.10;;;23.00;99.90;;;;;;5031720;28;20471;-71
2023/08/12 03:28:41;;;;;;;9.20;8.30;;;23.00;99.90;;;;;;5032337;28;20479;-71
2023/08/12 03:31:08;;;;;;;8.90;8.00;;;;;;;;;;5031576;28;20927;-72
2023/08/12 03:33:35;;;;;;;12.23;8.67;;;23.10;99.90;;;;;;5032804;28;20691;-72
2023/08/12 03:36:02;;;;;;;8.00;7.20;;;23.10;99.90;;;;;;5032665;28;20543;-72
2023/08/12 03:38:28;;;;;;;10.10;8.93;;;23.00;99.90;;;;;;5031824;28;20566;-72
2023/08/12 03:40:57;;;;;;;14.00;8.40;;;23.00;99.90;;;;;;5030774;28;20761;-72
2023/08/12 03:43:24;;;;;;;10.23;8.70;;;23.00;99.90;;;;;;5032739;28;20479;-72
2023/08/12 03:45:50;;;;;;;9.10;8.17;;;22.90;99.90;;;;;;5030254;28;20852;-72
2023/08/12 03:48:17;;;;;;;10.90;9.27;;;23.00;99.90;;;;;;5030058;28;20943;-72
2023/08/12 03:50:46;;;;;;;12.70;8.70;;;23.00;99.90;;;;;;5028073;28;20968;-72
2023/08/12 03:53:13;;;;;;;13.30;8.90;;;23.00;99.90;;;;;;5022453;28;20473;-72
2023/08/12 03:55:40;;;;;;;12.83;8.50;;;22.90;99.90;;;;;;5022954;28;20509;-73
2023/08/12 03:58:08;;;;;;;9.93;8.03;;;22.90;99.90;;;;;;5024092;28;20485;-73
2023/08/12 04:00:35;;;;;;;9.50;8.33;;;22.90;99.90;;;;;;5027899;28;20485;-73
2023/08/12 04:03:02;;;;;;;9.40;7.47;;;22.90;99.90;;;;;;5023771;28;21052;-72
2023/08/12 04:05:29;;;;;;;15.23;7.63;;;22.90;99.90;;;;;;5025939;28;20932;-72
2023/08/12 04:07:56;;;;;;;12.87;8.30;;;22.70;99.90;;;;;;5028580;28;20930;-72
2023/08/12 04:10:23;;;;;;;12.50;8.33;;;22.70;99.90;;;;;;5022757;28;20481;-72
2023/08/12 04:12:49;;;;;;;73.80;10.40;;;22.50;99.90;;;;;;5027640;28;21045;-72
2023/08/12 04:15:18;;;;;;;112.27;11.90;;;22.30;99.90;;;;;;5022678;28;20912;-72
2023/08/12 04:17:45;;;;;;;29.30;8.67;;;22.20;99.90;;;;;;5025083;28;20477;-72
2023/08/12 04:20:12;;;;;;;68.60;10.47;;;22.20;99.90;;;;;;5029258;28;20480;-72
2023/08/12 04:22:38;;;;;;;70.27;9.67;;;22.10;99.90;;;;;;5021990;28;21458;-72
2023/08/12 04:25:07;;;;;;;14.80;7.07;;;22.00;99.90;;;;;;5022173;28;20487;-72
2023/08/12 04:27:34;;;;;;;50.03;8.53;;;22.00;99.90;;;;;;5027204;28;20487;-72
2023/08/12 04:30:01;;;;;;;47.07;7.80;;;22.00;99.90;;;;;;5027969;28;20570;-72
2023/08/12 04:32:29;;;;;;;54.73;10.10;;;21.80;99.90;;;;;;5020532;28;20482;-72
2023/08/12 04:34:56;;;;;;;48.50;11.03;;;21.80;99.90;;;;;;5026360;28;20511;-72
2023/08/12 04:37:24;;;;;;;73.53;10.23;;;21.70;99.90;;;;;;5023682;28;20834;-72
2023/08/12 04:39:51;;;;;;;68.80;10.40;;;21.70;99.90;;;;;;5022726;28;20742;-72
2023/08/12 04:42:18;;;;;;;51.73;10.27;;;21.70;99.90;;;;;;5021775;28;20492;-72
2023/08/12 04:44:45;;;;;;;71.00;9.30;;;21.70;99.90;;;;;;5023399;28;20483;-72
2023/08/12 04:47:11;;;;;;;59.97;8.93;;;21.70;99.90;;;;;;5025825;28;21400;-71
2023/08/12 04:49:40;;;;;;;32.37;8.40;;;21.70;99.90;;;;;;5022996;28;20834;-72
2023/08/12 04:52:08;;;;;;;51.47;9.20;;;21.70;99.90;;;;;;5027956;28;20499;-72
2023/08/12 04:54:35;;;;;;;70.33;9.30;;;21.60;99.90;;;;;;5024463;28;20477;-71
2023/08/12 04:57:01;;;;;;;54.83;9.80;;;21.60;99.90;;;;;;5025706;28;20486;-72
2023/08/12 04:59:28;;;;;;;48.53;9.70;;;21.60;99.90;;;;;;5022657;28;20498;-72
2023/08/12 05:01:55;;;;;;;48.30;8.60;;;21.60;99.90;;;;;;5024120;28;20478;-72
2023/08/12 05:04:22;;;;;;;39.60;8.97;;;21.70;99.90;;;;;;5023991;28;20472;-72
2023/08/12 05:06:51;;;;;;;45.00;9.03;;;21.70;99.90;;;;;;5024619;28;20772;-72
2023/08/12 05:09:17;;;;;;;51.27;9.53;;;21.80;99.90;;;;;;5023176;28;20470;-72
2023/08/12 05:11:44;;;;;;;42.57;9.97;;;21.70;99.90;;;;;;5025283;28;20570;-72
2023/08/12 05:14:11;;;;;;;34.57;9.23;;;21.70;99.90;;;;;;5029875;28;20484;-73
2023/08/12 05:16:38;;;;;;;47.77;10.03;;;21.80;99.90;;;;;;5029231;28;20472;-72
2023/08/12 05:19:05;;;;;;;57.57;10.70;;;21.80;99.90;;;;;;5022459;28;20491;-72
2023/08/12 05:21:32;;;;;;;63.97;11.20;;;21.90;99.90;;;;;;5023056;28;20478;-72
2023/08/12 05:24:00;;;;;;;46.03;11.00;;;21.80;99.90;;;;;;5024262;28;21316;-72
2023/08/12 05:26:27;;;;;;;22.43;9.33;;;21.90;99.90;;;;;;5026147;28;20539;-73
2023/08/12 05:28:54;;;;;;;13.80;8.90;;;21.90;99.90;;;;;;5026531;28;20478;-72
2023/08/12 05:31:21;;;;;;;19.20;9.70;;;22.00;99.90;;;;;;5023696;28;20636;-72
2023/08/12 05:33:48;;;;;;;19.47;9.77;;;21.90;99.90;;;;;;5027777;28;20515;-72
2023/08/12 05:36:14;;;;;;;11.70;9.77;;;21.90;99.90;;;;;;5021024;28;20479;-71
2023/08/12 05:38:41;;;;;;;16.23;8.67;;;21.70;99.90;;;;;;5027085;28;20486;-71
2023/08/12 05:41:09;;;;;;;10.73;9.60;;;21.60;99.90;;;;;;5025530;28;20755;-72
2023/08/12 05:43:36;;;;;;;14.77;10.17;;;21.60;99.90;;;;;;5029301;28;20474;-72
2023/08/12 05:46:03;;;;;;;13.00;10.00;;;21.70;99.90;;;;;;5022219;28;20844;-73
2023/08/12 05:48:30;;;;;;;10.77;9.30;;;21.70;99.90;;;;;;5025524;28;20529;-73
2023/08/12 05:50:57;;;;;;;12.30;10.43;;;21.90;99.90;;;;;;5021141;28;20846;-73
2023/08/12 05:53:24;;;;;;;12.30;10.10;;;21.90;99.90;;;;;;5025040;28;20581;-73
2023/08/12 05:55:51;;;;;;;16.73;10.33;;;21.90;99.90;;;;;;5022140;28;20548;-73
2023/08/12 05:58:20;;;;;;;12.40;10.50;;;22.00;99.90;;;;;;5025000;28;20495;-73
2023/08/12 06:00:47;;;;;;;12.47;10.90;;;22.10;99.90;;;;;;5018900;28;21677;-73
2023/08/12 06:03:14;;;;;;;12.23;10.90;;;22.10;99.90;;;;;;5021224;28;20898;-73
2023/08/12 06:05:41;;;;;;;14.03;11.37;;;22.10;99.90;;;;;;5023221;28;20718;-73
2023/08/12 06:08:08;;;;;;;12.10;10.70;;;22.40;99.90;;;;;;5022343;28;20486;-73
2023/08/12 06:10:35;;;;;;;13.70;11.43;;;22.60;99.90;;;;;;5017421;28;20955;-73
2023/08/12 06:13:02;;;;;;;18.73;11.37;;;22.60;99.90;;;;;;5023631;28;20487;-73
2023/08/12 06:15:30;;;;;;;14.73;10.87;;;22.70;99.90;;;;;;5025962;28;21005;-73
2023/08/12 06:17:57;;;;;;;13.97;11.30;;;22.70;99.90;;;;;;5022174;28;20482;-73
2023/08/12 06:20:24;;;;;;;15.80;11.90;;;22.90;99.90;;;;;;5018320;28;20934;-73
2023/08/12 06:22:51;;;;;;;16.53;11.30;;;22.90;99.90;;;;;;5021629;28;20662;-74
2023/08/12 06:25:18;;;;;;;13.83;11.30;;;22.90;99.90;;;;;;5019654;28;20963;-74
2023/08/12 06:27:45;;;;;;;14.23;11.83;;;22.80;99.90;;;;;;5020755;28;20824;-75
2023/08/12 06:30:13;;;;;;;13.50;10.93;;;22.80;99.90;;;;;;5020667;28;20854;-74
2023/08/12 06:32:42;;;;;;;17.90;14.37;;;22.80;99.90;;;;;;5025535;28;20839;-75
2023/08/12 06:35:09;;;;;;;14.40;11.17;;;22.90;99.90;;;;;;5022307;28;20451;-74
2023/08/12 06:37:36;;;;;;;14.80;11.67;;;22.90;99.90;;;;;;5019836;28;20472;-74
2023/08/12 06:40:04;;;;;;;15.60;11.83;;;23.10;99.90;;;;;;5025678;28;20687;-74
2023/08/12 06:42:31;;;;;;;13.53;11.90;;;23.10;99.90;;;;;;5027385;28;20920;-75
2023/08/12 06:45:00;;;;;;;19.37;14.03;;;23.30;99.90;;;;;;5024797;28;20565;-74
2023/08/12 06:47:29;;;;;;;15.80;12.30;;;23.50;99.90;;;;;;5023941;28;20468;-74
2023/08/12 06:49:57;;;;;;;17.63;13.30;;;23.60;99.90;;;;;;5022826;28;20556;-74
2023/08/12 06:52:24;;;;;;;14.37;11.33;;;23.70;99.90;;;;;;5022086;28;20476;-73
2023/08/12 06:54:51;;;;;;;16.20;12.03;;;23.90;99.90;;;;;;5021439;28;20694;-73
2023/08/12 06:57:18;;;;;;;15.30;11.10;;;24.00;99.90;;;;;;5016425;28;20517;-73
2023/08/12 06:59:45;;;;;;;25.30;10.67;;;24.00;99.90;;;;;;5023971;28;20985;-74
2023/08/12 07:02:12;;;;;;;13.60;10.83;;;24.00;99.90;;;;;;5008116;28;20567;-74
2023/08/12 07:04:39;;;;;;;12.77;9.87;;;24.00;99.90;;;;;;5035063;28;20482;-75
2023/08/12 07:07:07;;;;;;;8.97;8.07;;;23.90;99.90;;;;;;5023446;28;20480;-75
2023/08/12 07:09:34;;;;;;;11.00;7.97;;;23.90;99.90;;;;;;5021861;28;20485;-76
2023/08/12 07:12:02;;;;;;;9.70;8.37;;;23.90;99.90;;;;;;5023608;28;20577;-75
2023/08/12 07:14:29;;;;;;;10.97;8.97;;;24.00;99.90;;;;;;5021174;28;20468;-75
2023/08/12 07:16:56;;;;;;;12.87;10.87;;;24.30;99.90;;;;;;5021841;28;20494;-74
2023/08/12 07:19:23;;;;;;;10.40;8.73;;;24.60;99.90;;;;;;5021892;28;20927;-74
2023/08/12 07:21:50;;;;;;;12.00;8.30;;;24.70;99.90;;;;;;5023044;28;20504;-73
2023/08/12 07:24:19;;;;;;;9.70;7.93;;;24.70;99.90;;;;;;5021320;28;20576;-72
2023/08/12 07:26:46;;;;;;;12.43;7.90;;;24.80;99.90;;;;;;5023632;28;20462;-72
2023/08/12 07:29:12;;;;;;;9.20;8.37;;;24.80;99.90;;;;;;5024190;28;20480;-72
2023/08/12 07:31:39;;;;;;;15.13;8.03;;;24.80;99.90;;;;;;5025357;28;20462;-72
2023/08/12 07:34:06;;;;;;;9.77;7.73;;;24.90;99.90;;;;;;5022282;28;20471;-72
2023/08/12 07:36:33;;;;;;;8.90;7.87;;;25.10;99.90;;;;;;5028267;28;20600;-72
2023/08/12 07:39:00;;;;;;;7.60;6.67;;;25.10;99.90;;;;;;5026730;28;20479;-73
2023/08/12 07:41:28;;;;;;;7.53;6.80;;;25.20;99.90;;;;;;5026610;28;20871;-73
2023/08/12 07:43:55;;;;;;;7.97;7.20;;;25.30;99.90;;;;;;5021257;28;20464;-73
2023/08/12 07:46:22;;;;;;;8.50;7.20;;;25.30;99.90;;;;;;5027091;28;20487;-73
2023/08/12 07:48:49;;;;;;;9.27;7.80;;;25.30;99.90;;;;;;5023121;28;22136;-72
2023/08/12 07:51:16;;;;;;;9.40;7.00;;;25.50;99.90;;;;;;5032542;28;20631;-72
2023/08/12 07:53:43;;;;;;;7.37;6.63;;;25.40;99.90;;;;;;5022381;28;20633;-72
2023/08/12 07:56:10;;;;;;;10.13;6.33;;;25.50;99.90;;;;;;5024510;28;20900;-72
2023/08/12 07:58:38;;;;;;;9.53;6.43;;;25.60;99.90;;;;;;5025646;28;20458;-72
2023/08/12 08:01:06;;;;;;;6.67;6.07;;;25.70;99.90;;;;;;5030114;28;20461;-71
2023/08/12 08:03:32;;;;;;;10.50;5.83;;;25.90;99.90;;;;;;5026971;28;20834;-72
2023/08/12 08:05:59;;;;;;;9.20;5.90;;;26.10;99.90;;;;;;5026003;28;20447;-72
2023/08/12 08:08:26;;;;;;;9.40;6.63;;;26.10;99.90;;;;;;5030582;28;20470;-72
2023/08/12 08:10:53;;;;;;;6.60;5.67;;;26.30;99.90;;;;;;5025324;28;21023;-72
2023/08/12 08:13:20;;;;;;;8.50;5.20;;;26.60;99.90;;;;;;5022348;28;20482;-72
2023/08/12 08:15:48;;;;;;;8.70;5.10;;;26.50;99.90;;;;;;5030256;28;20482;-72
2023/08/12 08:18:15;;;;;;;9.83;5.40;;;26.50;99.90;;;;;;5025861;28;20600;-71
2023/08/12 08:20:43;;;;;;;5.83;5.20;;;26.40;99.90;;;;;;5021998;28;20863;-73
2023/08/12 08:23:10;;;;;;;7.93;4.93;;;26.60;99.90;;;;;;5026018;28;20456;-72
2023/08/12 08:25:37;;;;;;;7.47;6.17;;;26.80;99.90;;;;;;5025202;28;20458;-72
2023/08/12 08:28:05;;;;;;;5.97;5.37;;;26.70;99.90;;;;;;5023680;28;20451;-72
2023/08/12 08:30:32;;;;;;;6.70;5.77;;;27.00;99.90;;;;;;5023887;28;20467;-72
2023/08/12 08:33:00;;;;;;;7.10;6.07;;;27.20;99.90;;;;;;5028508;28;20453;-72
2023/08/12 08:35:27;;;;;;;7.40;5.63;;;27.40;99.90;;;;;;5019104;28;20471;-71
2023/08/12 08:37:54;;;;;;;7.37;6.37;;;27.40;99.90;;;;;;5031764;28;20455;-71
2023/08/12 08:40:21;;;;;;;6.07;5.50;;;27.30;99.90;;;;;;5015632;28;20923;-71
2023/08/12 08:42:52;;;;;;;8.27;5.70;;;27.60;99.90;;;;;;5025446;28;20455;-72
2023/08/12 08:45:19;;;;;;;6.37;5.77;;;27.60;99.90;;;;;;5024480;28;20942;-71
2023/08/12 08:47:47;;;;;;;6.50;4.90;;;27.50;99.90;;;;;;5025158;28;20554;-70
2023/08/12 08:50:16;;;;;;;8.80;4.83;;;27.60;99.90;;;;;;5024287;28;20480;-71
2023/08/12 08:52:44;;;;;;;5.93;5.20;;;;;;;;;;5027759;28;20854;-71
2023/08/12 08:55:12;;;;;;;10.03;5.60;;;27.50;99.90;;;;;;5025731;28;20968;-71
2023/08/12 08:57:39;;;;;;;5.40;4.87;;;27.70;99.90;;;;;;5028242;28;20828;-70
2023/08/12 09:00:09;;;;;;;7.40;5.30;;;27.70;99.90;;;;;;5026577;28;20485;-69
2023/08/12 09:02:37;;;;;;;7.73;6.17;;;27.80;99.90;;;;;;5012363;28;20483;-70
2023/08/12 09:05:05;;;;;;;6.50;5.80;;;27.80;99.90;;;;;;5019849;28;21345;-69
2023/08/12 09:07:34;;;;;;;6.77;6.17;;;27.80;99.90;;;;;;5025043;28;20520;-69
2023/08/12 09:10:03;;;;;;;11.93;6.80;;;27.70;99.90;;;;;;5027202;28;20549;-70
2023/08/12 09:12:32;;;;;;;7.77;5.57;;;27.50;99.90;;;;;;5022454;28;20470;-68
2023/08/12 09:14:59;;;;;;;11.03;7.83;;;27.60;99.90;;;;;;5025982;28;20573;-68
2023/08/12 09:17:26;;;;;;;9.03;7.10;;;27.50;99.90;;;;;;5027485;28;20490;-69
2023/08/12 09:19:52;;;;;;;9.90;7.30;;;27.40;99.90;;;;;;5027051;28;20809;-68
2023/08/12 09:22:20;;;;;;;8.27;7.27;;;27.20;99.90;;;;;;5025592;28;20546;-69
2023/08/12 09:24:50;;;;;;;12.40;7.37;;;27.10;99.90;;;;;;5028020;28;20455;-68
2023/08/12 09:27:19;;;;;;;10.50;8.47;;;27.00;99.90;;;;;;5023615;28;20512;-68
2023/08/12 09:29:45;;;;;;;8.63;7.50;;;27.10;99.90;;;;;;5021663;28;20968;-68
2023/08/12 09:32:14;;;;;;;9.37;7.93;;;27.20;99.90;;;;;;5025409;28;20984;-68
2023/08/12 09:34:48;;;;;;;10.27;7.10;;;27.20;99.90;;;;;;5019367;28;21202;-68
2023/08/12 09:37:15;;;;;;;9.60;7.87;;;27.20;99.90;;;;;;5012975;28;20451;-68
2023/08/12 09:39:43;;;;;;;8.53;6.90;;;27.20;99.90;;;;;;5025312;28;20439;-68
2023/08/12 09:42:11;;;;;;;7.67;6.80;;;27.20;99.90;;;;;;5023118;28;21059;-68
2023/08/12 09:44:39;;;;;;;13.63;7.77;;;27.20;99.90;;;;;;5026937;28;20538;-68
2023/08/12 09:47:08;;;;;;;8.63;7.70;;;27.20;99.90;;;;;;5024678;28;20475;-68
2023/08/12 09:49:35;;;;;;;10.77;7.17;;;27.10;99.90;;;;;;5022117;28;20487;-68
2023/08/12 09:52:03;;;;;;;7.40;6.63;;;26.90;99.90;;;;;;5027321;28;20450;-67
2023/08/12 09:54:32;;;;;;;9.60;6.90;;;26.80;99.90;;;;;;5028073;28;20763;-68
2023/08/12 09:57:00;;;;;;;10.77;6.70;;;26.70;99.90;;;;;;5020116;28;20468;-68
2023/08/12 09:59:33;;;;;;;7.43;6.00;;;26.60;99.90;;;;;;5023866;28;20505;-67
2023/08/12 10:02:03;;;;;;;6.90;6.20;;;26.40;99.90;;;;;;5026578;28;20483;-67
2023/08/12 10:04:36;;;;;;;7.80;6.17;;;26.40;99.90;;;;;;5023225;28;20475;-67
2023/08/12 10:07:04;;;;;;;9.20;6.27;;;26.40;99.90;;;;;;5027298;28;20486;-67
2023/08/12 10:09:32;;;;;;;6.83;5.60;;;26.30;99.90;;;;;;5018785;28;20946;-66
2023/08/12 10:11:59;;;;;;;6.47;5.70;;;26.10;99.90;;;;;;5026055;28;20567;-66
2023/08/12 10:14:28;;;;;;;8.83;5.50;;;26.10;99.90;;;;;;5025588;28;20623;-67
2023/08/12 10:16:57;;;;;;;6.63;5.60;;;26.10;99.90;;;;;;5027633;28;21335;-67
2023/08/12 10:19:26;;;;;;;6.03;4.70;;;25.90;99.90;;;;;;5022732;28;20476;-67
2023/08/12 10:21:56;;;;;;;4.77;4.37;;;25.90;99.90;;;;;;5024543;28;20850;-68
2023/08/12 10:24:23;;;;;;;9.30;4.53;;;25.90;99.90;;;;;;5011546;28;20494;-67
2023/08/12 10:26:52;;;;;;;6.40;4.30;;;25.80;99.90;;;;;;5036983;28;20928;-67
2023/08/12 10:29:19;;;;;;;5.50;4.73;;;25.60;99.90;;;;;;5023608;28;20479;-68
2023/08/12 10:31:47;;;;;;;6.30;4.23;;;25.50;99.90;;;;;;5027300;28;20693;-68
2023/08/12 10:34:23;;;;;;;5.60;3.53;;;25.50;99.90;;;;;;5019211;28;20509;-68
2023/08/12 10:36:55;;;;;;;8.30;5.10;;;25.70;99.90;;;;;;5010759;28;20567;-68
2023/08/12 10:39:25;;;;;;;5.20;4.70;;;25.90;99.90;;;;;;5026890;28;20445;-68
2023/08/12 10:41:55;;;;;;;6.80;3.93;;;25.80;99.90;;;;;;5021757;28;20471;-68
2023/08/12 10:44:23;;;;;;;6.07;5.43;;;25.90;99.90;;;;;;5021520;28;20940;-69
2023/08/12 10:46:54;;;;;;;7.43;4.47;;;26.10;99.90;;;;;;5022738;28;20551;-68
2023/08/12 10:49:23;;;;;;;6.73;4.93;;;26.10;99.90;;;;;;5020080;28;21209;-69
2023/08/12 10:51:51;;;;;;;6.13;4.80;;;26.20;99.90;;;;;;5023168;28;20453;-68
2023/08/12 10:54:21;;;;;;;7.90;3.57;;;26.20;99.90;;;;;;5024122;28;20570;-68
2023/08/12 10:57:12;;;;;;;4.83;3.17;;;26.30;99.90;;;;;;5012156;28;20831;-67
2023/08/12 10:59:58;;;;;;;2.90;2.47;;;26.40;99.90;;;;;;5020800;28;20438;-66
2023/08/12 11:02:30;;;;;;;4.00;3.13;;;26.40;99.90;;;;;;5015802;28;20986;-67
2023/08/12 11:05:01;;;;;;;5.10;3.00;;;26.20;99.90;;;;;;5025555;28;20558;-67
2023/08/12 11:07:38;;;;;;;4.73;3.50;;;26.30;99.90;;;;;;5031225;28;20544;-67
2023/08/12 11:10:11;;;;;;;9.47;5.53;;;26.30;99.90;;;;;;5024960;28;20855;-66
2023/08/12 11:12:40;;;;;;;8.77;4.00;;;26.10;99.90;;;;;;5029886;28;20831;-66
2023/08/12 11:15:08;;;;;;;6.63;4.53;;;26.10;99.90;;;;;;5025030;28;20939;-66
2023/08/12 11:17:37;;;;;;;12.97;4.90;;;26.20;99.90;;;;;;5028784;28;20467;-66
2023/08/12 11:20:06;;;;;;;4.97;4.50;;;26.20;99.90;;;;;;5024966;28;20481;-66
2023/08/12 11:22:36;;;;;;;6.53;4.40;;;26.50;99.90;;;;;;5023178;28;20545;-65
2023/08/12 11:25:05;;;;;;;5.17;4.67;;;26.70;99.90;;;;;;5035588;28;20472;-66
2023/08/12 11:27:38;;;;;;;7.20;4.93;;;27.00;99.90;;;;;;5025035;28;20444;-66
2023/08/12 11:30:07;;;;;;;10.03;4.93;;;27.00;99.90;;;;;;5024637;28;20454;-65
2023/08/12 11:32:34;;;;;;;8.00;5.17;;;26.80;99.90;;;;;;5023298;28;20879;-65
2023/08/12 11:35:01;;;;;;;7.67;5.17;;;26.70;99.90;;;;;;5027641;28;20913;-65
2023/08/12 11:37:29;;;;;;;6.93;5.20;;;26.70;99.90;;;;;;5026536;28;20482;-66
2023/08/12 11:39:56;;;;;;;6.40;5.43;;;26.70;99.90;;;;;;5022945;28;20479;-65
2023/08/12 11:42:23;;;;;;;7.57;5.73;;;27.10;99.90;;;;;;5027420;28;20468;-64
2023/08/12 11:44:50;;;;;;;5.10;4.60;;;27.20;99.90;;;;;;5027283;28;20454;-64
2023/08/12 11:47:17;;;;;;;10.30;4.27;;;27.20;99.90;;;;;;5028445;28;20512;-66
2023/08/12 11:49:44;;;;;;;3.77;3.47;;;27.20;99.90;;;;;;5023780;28;20533;-65
2023/08/12 11:52:12;;;;;;;6.47;4.20;;;27.50;99.90;;;;;;5025448;28;20549;-65
2023/08/12 11:54:41;;;;;;;5.27;3.67;;;27.80;99.90;;;;;;5024957;28;20955;-66
2023/08/12 11:57:08;;;;;;;4.03;3.63;;;27.80;99.90;;;;;;5026910;28;20459;-65
2023/08/12 11:59:34;;;;;;;5.87;3.30;;;27.80;99.90;;;;;;5022294;28;20564;-65
2023/08/12 12:02:04;;;;;;;6.47;3.47;;;27.60;99.90;;;;;;5027585;28;20452;-64
2023/08/12 12:04:32;;;;;;;3.57;3.27;;;27.40;99.90;;;;;;5026795;28;20565;-65
2023/08/12 12:06:59;;;;;;;3.47;2.80;;;27.40;99.90;;;;;;5028638;28;20549;-65
2023/08/12 12:09:27;;;;;;;3.17;2.73;;;27.40;99.90;;;;;;5023169;28;20499;-65
2023/08/12 12:11:55;;;;;;;5.43;2.80;;;27.40;99.90;;;;;;5031807;28;20446;-65
2023/08/12 12:14:22;;;;;;;3.47;2.40;;;27.40;99.90;;;;;;5023940;28;20491;-64
2023/08/12 12:16:50;;;;;;;5.90;2.87;;;27.30;99.90;;;;;;5025696;28;20470;-64
2023/08/12 12:19:18;;;;;;;6.40;2.87;;;27.10;99.90;;;;;;5027498;28;21376;-64
2023/08/12 12:21:47;;;;;;;3.33;2.77;;;27.10;99.90;;;;;;5024333;28;20911;-64
2023/08/12 12:24:14;;;;;;;7.07;3.07;;;27.10;99.90;;;;;;5028326;28;20929;-64
2023/08/12 12:26:42;;;;;;;4.50;2.03;;;27.20;99.90;;;;;;5026786;28;20611;-63
2023/08/12 12:29:12;;;;;;;2.67;2.23;;;27.00;99.90;;;;;;5024554;28;20691;-64
2023/08/12 12:31:39;;;;;;;2.40;2.20;;;26.90;99.90;;;;;;5018772;28;20868;-64
2023/08/12 12:34:07;;;;;;;3.20;2.00;;;26.90;99.90;;;;;;5038226;28;20465;-65
2023/08/12 12:36:37;;;;;;;3.93;2.67;;;26.90;99.90;;;;;;5025154;28;20481;-64
2023/08/12 12:39:05;;;;;;;3.60;3.17;;;26.90;99.90;;;;;;5019474;28;20513;-65
2023/08/12 12:41:32;;;;;;;2.87;2.67;;;26.70;99.90;;;;;;5025744;28;20454;-66
2023/08/12 12:44:00;;;;;;;4.63;3.57;;;26.70;99.90;;;;;;5020990;28;20517;-67
2023/08/12 12:46:28;;;;;;;3.87;3.40;;;26.70;99.90;;;;;;5021645;28;20442;-65